Time;durP1;ratioP1;P1;durP2;ratioP2;P2;SDS_P1;SDS_P2;PMS_P1;PMS_P2;Temp;Humidity;BMP_temperature;BMP_pressure;BME280_temperature;BME280_humidity;BME280_pressure;Samples;Min_cycle;Max_cycle;Signal;HPM_P1;HPM_P2
2022/01/16 00:00:26;;;;;;;4.28;3.05;;;;;;;8.95;65.54;101595.84;5015978;28;102263;-49
2022/01/16 00:05:22;;;;;;;4.38;2.95;;;;;;;8.97;65.44;101601.03;5011729;28;102414;-48
2022/01/16 00:07:49;;;;;;;5.38;2.90;;;;;;;8.95;64.78;101600.47;5002988;28;103962;-49
2022/01/16 00:10:19;;;;;;;4.07;2.85;;;;;;;8.96;65.81;101607.53;5007860;28;102403;-48
2022/01/16 00:12:48;;;;;;;4.07;2.80;;;;;;;8.95;65.06;101605.88;5010089;28;102337;-48
2022/01/16 00:15:16;;;;;;;4.00;3.05;;;;;;;8.95;65.21;101612.13;5015466;28;102181;-48
2022/01/16 00:17:56;;;;;;;4.40;2.95;;;;;;;8.96;64.65;101612.97;5003718;28;104001;-48
2022/01/16 00:20:23;;;;;;;;;;;;;;;8.95;64.62;101623.00;5003216;28;102050;-49
2022/01/16 00:22:50;;;;;;;3.60;2.50;;;;;;;8.96;65.26;101612.97;5015844;28;102246;-49
2022/01/16 00:25:16;;;;;;;3.03;2.30;;;;;;;8.96;65.63;101621.94;5010562;28;102219;-48
2022/01/16 00:27:43;;;;;;;4.18;2.33;;;;;;;8.95;65.58;101623.00;5017551;28;104006;-49
2022/01/16 00:30:12;;;;;;;3.97;2.72;;;;;;;8.95;65.68;101623.00;5014497;28;102589;-47
2022/01/16 00:32:38;;;;;;;;;;;;;;;8.96;65.57;101634.69;5012640;28;102174;-49
2022/01/16 00:35:06;;;;;;;3.15;2.42;;;;;;;8.95;65.51;101633.84;5005170;28;102265;-48
2022/01/16 00:37:33;;;;;;;2.72;1.98;;;;;;;8.97;65.42;101641.75;5007998;28;104336;-47
2022/01/16 00:39:59;;;;;;;3.75;2.50;;;;;;;8.96;65.28;101646.34;5012574;28;102188;-47
2022/01/16 00:42:26;;;;;;;3.53;2.42;;;;;;;8.96;65.29;101640.09;5014388;28;102187;-47
2022/01/16 00:44:52;;;;;;;3.42;2.60;;;;;;;8.96;64.99;101640.09;5010780;28;102610;-49
2022/01/16 00:47:20;;;;;;;3.33;2.63;;;;;;;8.96;65.08;101638.22;5001737;28;103998;-49
2022/01/16 00:49:47;;;;;;;5.15;2.58;;;;;;;8.97;65.37;101636.31;5002702;28;102065;-48
2022/01/16 00:52:13;;;;;;;5.28;2.90;;;;;;;8.97;64.85;101630.91;4998996;28;102111;-48
2022/01/16 00:54:40;;;;;;;3.38;2.50;;;;;;;8.96;64.63;101640.94;5012598;28;102636;-48
2022/01/16 00:57:06;;;;;;;3.53;2.63;;;;;;;8.97;65.79;101658.03;5010445;28;103924;-48
2022/01/16 00:59:33;;;;;;;4.38;2.42;;;;;;;8.97;64.98;101660.75;5016917;28;102261;-49
2022/01/16 01:02:00;;;;;;;4.07;2.50;;;;;;;8.97;65.41;101671.63;5013883;28;102173;-49
2022/01/16 01:04:28;;;;;;;3.38;2.55;;;;;;;8.97;64.89;101674.34;5017327;28;102169;-48
2022/01/16 01:06:55;;;;;;;3.20;2.55;;;;;;;8.98;65.12;101686.84;5010306;28;104079;-48
2022/01/16 01:09:22;;;;;;;4.45;2.50;;;;;;;8.97;65.46;101751.16;5014972;28;102261;-49
2022/01/16 01:11:53;;;;;;;4.28;2.50;;;;;;;8.97;65.44;101701.47;5013666;28;102159;-48
2022/01/16 01:14:25;;;;;;;2.85;2.10;;;;;;;8.97;65.95;101668.91;5009120;28;104821;-49
2022/01/16 01:16:55;;;;;;;3.88;2.35;;;;;;;8.97;65.65;101647.19;5012765;28;103999;-49
2022/01/16 01:19:25;;;;;;;4.22;2.72;;;;;;;8.97;65.21;101557.59;5012254;28;102381;-49
2022/01/16 01:21:53;;;;;;;4.38;2.45;;;;;;;8.98;64.83;101469.63;5014532;28;102618;-49
2022/01/16 01:24:22;;;;;;;3.37;2.20;;;;;;;8.97;65.48;101478.84;5012311;27;102194;-48
2022/01/16 01:26:56;;;;;;;3.33;2.60;;;;;;;8.97;65.20;101512.25;5011245;28;104034;-47
2022/01/16 01:29:22;;;;;;;3.83;2.55;;;;;;;8.97;65.63;101508.72;5013616;28;102125;-49
2022/01/16 01:31:52;;;;;;;3.63;2.08;;;;;;;8.97;64.95;101555.69;4990610;28;102252;-48
2022/01/16 01:34:18;;;;;;;4.70;2.58;;;;;;;8.97;65.44;101573.88;5005235;28;102246;-48
2022/01/16 01:36:48;;;;;;;2.67;2.10;;;;;;;8.97;65.00;101558.41;5006099;28;105273;-48
2022/01/16 01:39:17;;;;;;;3.53;2.30;;;;;;;8.97;65.57;101625.47;5003542;28;102201;-48
2022/01/16 01:41:44;;;;;;;4.60;2.47;;;;;;;8.98;65.17;101629.81;5008079;28;102241;-48
2022/01/16 01:52:26;;;;;;;2.83;1.95;;;;;;;8.97;65.68;101637.13;5009045;28;102174;-48
2022/01/16 01:54:54;;;;;;;4.10;2.35;;;;;;;8.99;66.00;101612.50;5001369;28;102334;-48
2022/01/16 01:57:21;;;;;;;3.35;2.40;;;;;;;8.97;64.72;101630.91;5004718;28;104076;-48
2022/01/16 01:59:47;;;;;;;2.78;2.20;;;;;;;8.97;65.41;101641.75;5012947;28;102400;-48
2022/01/16 02:02:14;;;;;;;3.92;2.30;;;;;;;8.97;65.31;101639.03;5013278;28;102272;-49
2022/01/16 02:04:40;;;;;;;2.70;2.00;;;;;;;8.98;65.19;101643.41;5012232;28;102247;-48
2022/01/16 02:07:08;;;;;;;4.95;2.22;;;;;;;8.97;64.68;101637.13;5012642;28;104108;-48
2022/01/16 02:09:34;;;;;;;3.08;2.20;;;;;;;8.97;65.37;101637.13;5005043;28;102341;-49
2022/01/16 02:12:03;;;;;;;3.00;2.28;;;;;;;8.97;65.08;101658.03;5007758;28;102831;-48
2022/01/16 02:14:35;;;;;;;3.00;2.38;;;;;;;8.97;64.90;101664.28;5017840;28;102361;-48
2022/01/16 02:28:22;;;;;;;3.60;2.30;;;;;;;8.97;64.84;101686.00;5006390;28;108074;-48
2022/01/16 02:36:20;;;;;;;3.83;2.58;;;;;;;8.98;65.08;101675.97;5015419;28;102186;-49
2022/01/16 02:38:48;;;;;;;4.43;1.98;;;;;;;8.97;65.23;101686.00;5014337;28;105500;-48
2022/01/16 02:41:16;;;;;;;4.47;2.13;;;;;;;8.98;65.64;101684.13;5010976;28;102570;-49
2022/01/16 02:43:47;;;;;;;5.65;2.22;;;;;;;8.98;65.09;101686.84;5000266;28;102273;-48
2022/01/16 02:48:41;;;;;;;2.10;1.63;;;;;;;8.98;65.02;101690.41;5002716;28;103962;-48
2022/01/16 02:51:07;;;;;;;4.10;2.20;;;;;;;8.99;64.94;101691.22;5015200;28;102341;-48
2022/01/16 02:53:34;;;;;;;3.33;2.00;;;;;;;8.98;65.07;101689.53;5004663;28;102176;-48
2022/01/16 02:56:01;;;;;;;3.08;2.00;;;;;;;8.98;65.22;101697.69;5014870;28;102239;-48
2022/01/16 02:58:28;;;;;;;2.67;1.90;;;;;;;8.97;65.65;101696.06;5008325;28;103705;-48
2022/01/16 03:00:54;;;;;;;4.13;2.15;;;;;;;8.98;65.09;101697.69;5006950;28;102314;-48
2022/01/16 03:03:21;;;;;;;2.83;2.13;;;;;;;8.98;65.81;101708.56;5014723;28;102148;-48
2022/01/16 03:05:48;;;;;;;2.67;1.98;;;;;;;8.98;64.91;101713.97;5005956;28;102165;-49
2022/01/16 03:08:14;;;;;;;3.45;2.08;;;;;;;8.98;65.07;101714.84;5005799;28;103843;-48
2022/01/16 03:11:02;;;;;;;5.40;2.05;;;;;;;8.99;64.72;101704.78;5005750;28;102334;-48
2022/01/16 03:13:32;;;;;;;3.95;2.00;;;;;;;8.98;65.23;101716.69;5009700;28;102128;-47
2022/01/16 03:15:59;;;;;;;5.70;2.28;;;;;;;8.98;65.65;101716.69;5003974;28;102285;-48
2022/01/16 03:23:38;;;;;;;2.72;2.00;;;;;;;8.98;65.01;101730.28;5011890;28;102267;-49
2022/01/16 03:26:05;;;;;;;2.85;1.88;;;;;;;8.98;65.17;101733.00;5011797;28;102217;-48
2022/01/16 03:28:32;;;;;;;3.28;2.08;;;;;;;8.99;64.75;101737.38;5009269;28;103843;-48
2022/01/16 03:30:59;;;;;;;2.33;1.77;;;;;;;8.97;65.41;101740.31;5003076;28;102290;-49
2022/01/16 03:33:26;;;;;;;3.13;1.85;;;;;;;8.99;65.37;101729.22;5007105;28;102256;-49
2022/01/16 03:35:52;;;;;;;3.15;2.03;;;;;;;8.98;65.60;101731.13;4998154;28;102630;-49
2022/01/16 03:38:19;;;;;;;3.42;2.10;;;;;;;8.99;65.28;101737.38;5013455;28;103874;-48
2022/01/16 03:40:46;;;;;;;2.22;1.67;;;;;;;8.99;65.19;101737.38;4987234;28;102126;-49
2022/01/16 03:43:14;;;;;;;3.40;2.17;;;;;;;8.99;65.17;101729.22;5016227;28;102235;-48
2022/01/16 03:45:46;;;;;;;2.33;1.70;;;;;;;8.98;64.71;101731.13;5017146;28;102336;-47
2022/01/16 03:48:14;;;;;;;2.90;2.08;;;;;;;8.98;65.78;101724.84;5002362;28;103867;-49
2022/01/16 03:50:40;;;;;;;4.15;2.08;;;;;;;8.99;65.30;101737.38;5001860;28;102596;-49
2022/01/16 03:53:07;;;;;;;2.10;1.80;;;;;;;8.99;65.53;101729.22;5011172;28;102398;-48
2022/01/16 03:55:34;;;;;;;2.70;1.80;;;;;;;8.99;65.12;101732.78;5011820;28;102522;-49
2022/01/16 03:58:00;;;;;;;3.00;1.77;;;;;;;8.99;65.19;101742.81;5009849;28;103991;-48
2022/01/16 04:00:27;;;;;;;2.63;1.98;;;;;;;8.99;65.66;101742.81;5017984;28;102223;-48
2022/01/16 04:02:55;;;;;;;3.85;1.95;;;;;;;8.99;65.68;101742.81;5015221;28;102373;-48
2022/01/16 04:05:22;;;;;;;3.67;2.30;;;;;;;9.00;65.36;101744.44;5019865;28;102473;-49
2022/01/16 04:07:49;;;;;;;3.58;1.88;;;;;;;8.99;65.24;101738.19;5011024;28;103801;-48
2022/01/16 04:10:15;;;;;;;2.42;1.90;;;;;;;8.99;65.11;101738.19;5011994;28;102307;-47
2022/01/16 04:12:44;;;;;;;2.58;1.80;;;;;;;8.99;65.10;101748.25;5001478;28;103594;-47
2022/01/16 04:17:38;;;;;;;3.15;1.70;;;;;;;8.99;65.05;101759.09;5012490;28;103998;-49
2022/01/16 04:20:07;;;;;;;2.50;1.60;;;;;;;9.00;65.60;101760.75;5006908;28;102212;-48
2022/01/16 04:22:34;;;;;;;2.00;1.70;;;;;;;8.98;65.19;101741.13;5008279;27;101932;-48
2022/01/16 04:25:00;;;;;;;2.42;1.73;;;;;;;8.99;65.28;101750.97;5017344;27;102161;-49
2022/01/16 04:27:27;;;;;;;2.78;1.80;;;;;;;8.99;65.59;101759.09;5004292;27;103775;-48
2022/01/16 04:29:53;;;;;;;2.63;1.98;;;;;;;8.99;64.69;101759.91;5008384;28;102245;-48
2022/01/16 04:32:20;;;;;;;2.65;1.83;;;;;;;8.99;65.11;101769.97;5012747;28;102587;-48
2022/01/16 04:34:46;;;;;;;3.20;1.92;;;;;;;8.99;65.04;101775.38;5009803;27;102185;-48
2022/01/16 04:37:14;;;;;;;2.63;1.88;;;;;;;9.01;64.99;101773.25;5015203;28;103922;-48
2022/01/16 04:39:48;;;;;;;3.55;1.85;;;;;;;8.99;65.14;101778.94;5015257;28;102158;-49
2022/01/16 04:45:00;;;;;;;4.13;2.10;;;;;;;8.99;64.99;101800.66;5009114;28;102202;-48
2022/01/16 04:47:27;;;;;;;1.67;1.55;;;;;;;9.00;65.89;101798.75;5008607;28;103948;-49
2022/01/16 04:49:53;;;;;;;3.40;2.20;;;;;;;8.99;65.99;101797.94;5004771;28;102608;-48
2022/01/16 04:52:21;;;;;;;2.70;1.73;;;;;;;9.00;65.07;101796.03;5015434;28;102207;-49
2022/01/16 04:54:47;;;;;;;3.15;2.40;;;;;;;9.00;65.92;101804.19;5017489;28;102300;-48
2022/01/16 04:57:14;;;;;;;2.25;1.77;;;;;;;8.99;65.65;101797.13;5009112;28;103940;-49
2022/01/16 04:59:41;;;;;;;2.20;1.70;;;;;;;8.99;65.68;101807.97;5011972;28;102265;-48
2022/01/16 05:02:07;;;;;;;3.42;1.95;;;;;;;8.99;66.11;101803.38;5006434;28;102412;-49
2022/01/16 05:04:43;;;;;;;2.65;1.55;;;;;;;8.99;65.32;101794.41;5006093;28;102313;-48
2022/01/16 05:07:10;;;;;;;3.13;1.92;;;;;;;9.00;66.01;101798.75;5004589;28;103897;-49
2022/01/16 05:09:38;;;;;;;3.65;1.60;;;;;;;8.98;65.81;101796.28;4982350;28;102474;-48
2022/01/16 05:12:11;;;;;;;3.42;2.05;;;;;;;8.99;65.86;101808.78;5002380;28;102970;-48
2022/01/16 05:17:22;;;;;;;2.92;1.88;;;;;;;9.00;65.75;101812.34;5013544;28;103933;-49
2022/01/16 05:19:49;;;;;;;2.55;1.80;;;;;;;8.99;65.52;101814.22;5000718;28;102147;-48
2022/01/16 05:22:15;;;;;;;2.33;1.85;;;;;;;9.00;65.08;101809.63;5008604;28;102282;-48
2022/01/16 05:24:43;;;;;;;2.47;1.67;;;;;;;9.00;65.93;101821.31;5015659;28;102481;-48
2022/01/16 05:27:10;;;;;;;3.25;1.80;;;;;;;8.99;65.24;101811.50;5013572;28;103863;-49
2022/01/16 05:29:36;;;;;;;3.22;2.00;;;;;;;8.99;65.13;101797.94;5010043;28;102024;-48
2022/01/16 05:32:04;;;;;;;2.35;1.73;;;;;;;9.00;65.29;101821.31;5015218;28;102146;-49
2022/01/16 05:34:31;;;;;;;2.50;1.83;;;;;;;9.00;65.35;101820.47;5014069;28;102891;-48
2022/01/16 05:36:57;;;;;;;3.50;2.03;;;;;;;9.00;65.05;101815.03;5013546;28;103705;-48
2022/01/16 05:39:23;;;;;;;2.00;1.80;;;;;;;8.99;65.40;101811.50;5013288;28;102235;-47
2022/01/16 05:41:51;;;;;;;2.72;1.90;;;;;;;9.00;65.08;101815.03;5013341;28;102163;-48
2022/01/16 05:44:18;;;;;;;1.98;1.67;;;;;;;9.00;65.89;101821.31;5005091;28;102252;-47
2022/01/16 05:46:45;;;;;;;2.50;1.92;;;;;;;9.00;65.09;101820.47;5007561;28;103887;-50
2022/01/16 05:49:11;;;;;;;3.72;2.20;;;;;;;9.00;65.04;101831.34;5004613;28;102017;-49
2022/01/16 05:51:38;;;;;;;2.38;1.88;;;;;;;9.00;65.86;101834.06;5011770;28;102267;-48
2022/01/16 05:54:04;;;;;;;2.67;1.83;;;;;;;9.01;65.75;101838.41;5003816;28;102385;-48
2022/01/16 05:56:31;;;;;;;2.42;2.00;;;;;;;9.02;65.09;101840.09;5014804;28;103907;-47
2022/01/16 05:58:59;;;;;;;3.13;1.85;;;;;;;9.00;65.23;101843.03;5016735;28;102190;-49
2022/01/16 06:01:26;;;;;;;2.53;1.83;;;;;;;9.00;65.31;101844.91;5008189;28;102178;-49
2022/01/16 06:03:52;;;;;;;3.05;1.90;;;;;;;9.00;65.19;101853.06;4994494;28;102173;-47
2022/01/16 06:06:19;;;;;;;2.05;1.55;;;;;;;9.01;65.98;101854.72;5007665;28;104060;-47
2022/01/16 06:08:45;;;;;;;2.80;2.00;;;;;;;9.00;65.43;101847.63;4998175;28;102244;-48
2022/01/16 06:11:13;;;;;;;2.83;1.70;;;;;;;9.00;65.28;101853.88;5007013;28;101896;-48
2022/01/16 06:13:39;;;;;;;2.65;1.98;;;;;;;9.01;65.02;101857.41;5004721;28;102667;-48
2022/01/16 06:16:08;;;;;;;2.08;1.52;;;;;;;9.01;65.25;101871.00;5007978;28;103872;-49
2022/01/16 06:18:34;;;;;;;2.85;2.13;;;;;;;9.01;65.05;101871.00;5013200;28;102785;-49
2022/01/16 06:21:01;;;;;;;2.90;1.85;;;;;;;9.01;65.77;101876.44;5015405;28;102464;-49
2022/01/16 06:23:28;;;;;;;2.72;1.85;;;;;;;9.01;64.95;101876.44;4987076;28;102367;-49
2022/01/16 06:25:54;;;;;;;2.55;1.90;;;;;;;9.01;65.70;101881.88;5010305;28;104279;-48
2022/01/16 06:28:21;;;;;;;3.67;1.90;;;;;;;9.02;66.35;101894.41;5015847;28;102142;-48
2022/01/16 06:30:48;;;;;;;3.45;1.83;;;;;;;9.01;65.68;101890.81;5012289;28;102367;-49
2022/01/16 06:33:16;;;;;;;2.28;1.80;;;;;;;9.02;65.16;101899.84;5016334;28;102215;-48
2022/01/16 06:35:42;;;;;;;2.40;1.70;;;;;;;9.02;65.95;101905.25;5005818;28;103826;-49
2022/01/16 06:38:09;;;;;;;3.42;1.98;;;;;;;9.01;66.02;101901.69;5006270;28;103584;-48
2022/01/16 06:40:36;;;;;;;3.50;2.00;;;;;;;9.01;65.41;101909.00;5014549;28;102617;-48
2022/01/16 06:43:02;;;;;;;4.53;2.20;;;;;;;9.02;65.56;101913.41;5013973;28;102282;-49
2022/01/16 06:45:29;;;;;;;3.28;1.92;;;;;;;9.03;65.31;101917.78;5011830;28;103859;-49
2022/01/16 06:47:55;;;;;;;2.20;2.00;;;;;;;9.03;66.05;101923.19;5009756;28;102319;-49
2022/01/16 06:50:23;;;;;;;3.42;1.95;;;;;;;9.02;66.07;101919.66;5006090;28;102314;-49
2022/01/16 06:52:50;;;;;;;3.22;1.88;;;;;;;9.02;65.97;101916.13;5014894;28;102784;-49
2022/01/16 06:55:16;;;;;;;2.28;1.80;;;;;;;9.03;65.35;101920.47;5009238;28;104084;-50
2022/01/16 06:57:43;;;;;;;2.85;1.90;;;;;;;9.03;65.27;101928.63;5014294;28;102504;-49
2022/01/16 07:00:10;;;;;;;3.38;2.25;;;;;;;9.03;65.52;101931.34;5008897;28;102550;-49
2022/01/16 07:02:37;;;;;;;3.05;2.22;;;;;;;9.03;65.28;101931.34;5013164;28;102156;-49
2022/01/16 07:05:04;;;;;;;2.88;1.98;;;;;;;9.03;65.61;101928.63;5010563;28;104001;-48
2022/01/16 07:07:33;;;;;;;3.83;2.22;;;;;;;9.03;65.42;101925.91;5004503;28;101988;-48
2022/01/16 07:09:59;;;;;;;3.65;2.28;;;;;;;9.04;65.82;101930.28;5004302;28;102804;-47
2022/01/16 07:12:26;;;;;;;3.20;2.40;;;;;;;9.03;65.62;101934.06;5011215;28;102427;-48
2022/01/16 07:14:52;;;;;;;4.20;2.75;;;;;;;9.04;65.51;101939.25;5010380;28;104003;-47
2022/01/16 07:17:18;;;;;;;4.22;2.63;;;;;;;9.05;65.69;101948.22;5011036;28;102489;-49
2022/01/16 07:19:45;;;;;;;5.18;3.03;;;;;;;9.04;65.39;101943.84;5012102;28;102261;-48
2022/01/16 07:22:11;;;;;;;4.60;2.85;;;;;;;9.05;66.11;101953.66;5008127;28;102027;-48
2022/01/16 07:24:39;;;;;;;3.90;2.72;;;;;;;9.04;66.11;101944.69;5000665;28;103998;-49
2022/01/16 07:27:06;;;;;;;3.75;2.88;;;;;;;9.05;65.54;101942.78;5007158;28;102156;-48
2022/01/16 07:29:33;;;;;;;5.13;3.17;;;;;;;9.06;66.31;101944.47;5013263;28;102593;-48
2022/01/16 07:32:00;;;;;;;3.85;2.83;;;;;;;9.05;65.88;101948.22;5009678;28;102534;-48
2022/01/16 07:34:26;;;;;;;4.05;2.78;;;;;;;9.06;65.40;101952.63;5001346;28;103887;-48
2022/01/16 07:36:53;;;;;;;5.68;3.05;;;;;;;9.06;65.72;101952.63;5009143;28;102426;-49
2022/01/16 07:39:19;;;;;;;3.95;2.90;;;;;;;9.07;65.94;101951.53;5010705;28;103589;-47
2022/01/16 07:41:47;;;;;;;5.32;3.03;;;;;;;9.06;65.36;101955.31;5000934;28;102554;-48
2022/01/16 07:44:14;;;;;;;5.28;3.25;;;;;;;9.07;65.56;101967.84;5011098;28;103761;-49
2022/01/16 07:46:40;;;;;;;4.68;3.30;;;;;;;9.07;65.43;101963.22;5012714;28;102128;-48
2022/01/16 07:49:07;;;;;;;4.40;3.40;;;;;;;9.07;65.88;101963.22;5005388;28;102524;-48
2022/01/16 07:51:33;;;;;;;4.65;3.45;;;;;;;9.08;65.75;101980.34;5008708;28;102278;-48
2022/01/16 07:54:00;;;;;;;4.18;3.28;;;;;;;9.08;65.69;101969.50;5005047;28;103872;-47
2022/01/16 07:56:27;;;;;;;4.93;3.17;;;;;;;9.09;66.14;101982.03;5009178;28;102197;-48
2022/01/16 07:58:54;;;;;;;5.25;3.40;;;;;;;9.09;65.79;101973.88;5002559;28;102241;-48
2022/01/16 08:01:21;;;;;;;4.05;3.17;;;;;;;9.08;65.58;101961.34;5004726;28;102586;-49
2022/01/16 08:03:47;;;;;;;4.40;3.42;;;;;;;9.08;65.86;101959.44;5010077;28;108043;-50
2022/01/16 08:06:15;;;;;;;4.35;3.22;;;;;;;9.09;65.94;101946.72;5010955;28;102276;-48
2022/01/16 08:08:42;;;;;;;5.05;3.78;;;;;;;9.08;66.06;101951.31;5009307;28;102153;-49
2022/01/16 08:11:10;;;;;;;4.60;3.30;;;;;;;9.08;66.08;101948.59;5011902;28;102718;-49
2022/01/16 08:13:37;;;;;;;5.60;3.78;;;;;;;9.09;66.35;101949.44;5006975;28;103881;-48
2022/01/16 08:16:05;;;;;;;5.63;3.70;;;;;;;9.08;66.19;101945.03;5010924;28;102421;-49
2022/01/16 08:18:32;;;;;;;5.85;3.97;;;;;;;9.09;65.94;101963.03;5015993;28;103622;-49
2022/01/16 08:20:59;;;;;;;4.88;3.70;;;;;;;9.09;65.95;101952.16;5016807;28;102180;-48
2022/01/16 08:23:25;;;;;;;6.35;4.18;;;;;;;9.10;65.90;101964.66;5013802;28;104243;-48
2022/01/16 08:25:52;;;;;;;5.45;3.75;;;;;;;9.09;65.37;101961.13;5016058;28;105709;-48
2022/01/16 08:28:19;;;;;;;5.07;3.70;;;;;;;9.09;66.34;101957.59;5013979;28;102050;-49
2022/01/16 08:30:45;;;;;;;6.60;4.05;;;;;;;9.08;65.71;101962.16;5009582;28;102581;-49
2022/01/16 08:33:13;;;;;;;5.22;3.80;;;;;;;9.09;65.74;101965.72;5012414;28;103848;-49
2022/01/16 08:35:40;;;;;;;5.95;3.50;;;;;;;9.09;65.65;101972.00;5009751;28;102272;-48
2022/01/16 08:38:06;;;;;;;5.40;3.80;;;;;;;9.10;65.42;101973.63;5013799;28;102976;-49
2022/01/16 08:40:33;;;;;;;5.20;4.20;;;;;;;9.10;66.09;101970.09;5009510;28;102348;-48
2022/01/16 08:43:07;;;;;;;4.90;3.65;;;;;;;9.09;65.52;101965.72;5006422;28;103927;-49
2022/01/16 08:45:33;;;;;;;4.38;3.72;;;;;;;9.11;66.00;101969.03;5010680;28;102175;-48
2022/01/16 08:48:00;;;;;;;4.50;3.63;;;;;;;9.10;65.50;101967.38;5011833;28;102691;-48
2022/01/16 08:50:28;;;;;;;5.60;3.65;;;;;;;9.11;65.36;101963.59;5007619;28;102227;-48
2022/01/16 08:52:54;;;;;;;4.68;3.65;;;;;;;9.11;65.52;101955.44;5010130;28;103757;-48
2022/01/16 08:55:21;;;;;;;5.10;3.38;;;;;;;9.11;66.30;101959.00;5006017;28;103362;-48
2022/01/16 08:57:47;;;;;;;5.53;3.53;;;;;;;9.11;66.28;101952.72;5007140;28;102343;-49
2022/01/16 09:00:14;;;;;;;5.63;3.80;;;;;;;9.12;66.14;101954.38;4999499;28;102146;-49
2022/01/16 09:02:40;;;;;;;5.25;3.35;;;;;;;9.11;66.23;101952.72;4987446;28;103859;-48
2022/01/16 09:05:08;;;;;;;3.88;3.25;;;;;;;9.11;65.75;101939.16;5016051;28;102153;-49
2022/01/16 09:07:36;;;;;;;4.75;3.58;;;;;;;9.12;65.37;101943.53;5016235;28;102381;-49
2022/01/16 09:10:07;;;;;;;4.82;3.22;;;;;;;9.12;65.91;101943.53;5013364;28;102259;-49
2022/01/16 09:12:37;;;;;;;4.13;3.30;;;;;;;9.12;65.77;101935.38;5016081;28;103957;-49
2022/01/16 09:15:07;;;;;;;4.60;3.70;;;;;;;9.12;65.96;101932.66;5014619;28;102276;-47
2022/01/16 09:17:33;;;;;;;5.15;3.45;;;;;;;9.11;65.48;101928.28;5014050;28;102242;-49
2022/01/16 09:20:01;;;;;;;4.70;3.33;;;;;;;9.11;65.77;101920.97;5006763;28;102237;-48
2022/01/16 09:22:27;;;;;;;5.20;3.35;;;;;;;9.12;65.69;101927.22;5007938;28;104238;-48
2022/01/16 09:24:55;;;;;;;5.25;3.30;;;;;;;9.13;65.74;101928.91;5008951;28;102229;-49
2022/01/16 09:27:22;;;;;;;4.13;3.15;;;;;;;9.12;66.31;101929.94;5011942;28;102573;-49
2022/01/16 09:29:48;;;;;;;4.38;3.40;;;;;;;9.12;65.42;101927.22;5016144;28;102316;-49
2022/01/16 09:32:16;;;;;;;3.83;3.33;;;;;;;9.12;65.54;101932.66;5013454;28;102816;-48
2022/01/16 09:34:43;;;;;;;4.27;3.50;;;;;;;9.11;65.92;101918.25;5004101;27;102786;-49
2022/01/16 09:37:10;;;;;;;4.60;2.92;;;;;;;9.12;65.41;101916.34;5000064;28;102278;-49
2022/01/16 09:39:37;;;;;;;4.13;3.38;;;;;;;9.11;66.08;101915.53;5008502;28;102466;-48
2022/01/16 09:42:07;;;;;;;4.43;3.28;;;;;;;9.12;66.10;101919.06;4999464;28;103958;-49
2022/01/16 09:44:36;;;;;;;5.00;3.58;;;;;;;9.12;66.01;101919.06;4998429;28;102135;-48
2022/01/16 09:47:03;;;;;;;4.60;3.17;;;;;;;9.12;65.74;101916.34;5008753;28;102619;-47
2022/01/16 09:49:29;;;;;;;3.70;3.20;;;;;;;9.12;65.67;101916.34;5012980;28;102470;-48
2022/01/16 09:51:56;;;;;;;3.80;3.20;;;;;;;9.11;65.87;101914.72;5003840;28;104111;-49
2022/01/16 09:54:23;;;;;;;4.70;3.13;;;;;;;9.11;65.78;101915.53;4998888;28;102230;-49
2022/01/16 09:56:51;;;;;;;4.10;3.15;;;;;;;9.11;65.70;101909.28;4999259;28;102320;-49
2022/01/16 09:59:19;;;;;;;5.00;2.97;;;;;;;9.11;65.83;101901.13;5002247;28;102342;-48
2022/01/16 10:01:45;;;;;;;5.13;3.60;;;;;;;9.12;65.40;101900.06;5008269;28;103121;-48
2022/01/16 10:04:30;;;;;;;4.60;3.40;;;;;;;9.11;66.10;101895.69;5007515;28;102280;-48
2022/01/16 10:06:58;;;;;;;4.32;3.13;;;;;;;9.11;66.26;101893.81;5002768;28;102134;-49
2022/01/16 10:09:24;;;;;;;4.88;3.40;;;;;;;9.11;65.67;101904.69;5006636;28;102261;-49
2022/01/16 10:11:56;;;;;;;4.05;3.35;;;;;;;9.12;65.51;101905.50;5010098;28;105222;-49
2022/01/16 10:14:33;;;;;;;4.00;3.10;;;;;;;9.12;66.40;101905.50;5007480;28;101961;-49
2022/01/16 10:17:09;;;;;;;3.85;3.15;;;;;;;9.11;65.84;101920.16;5003399;28;102481;-48
2022/01/16 10:19:35;;;;;;;4.45;3.15;;;;;;;9.12;65.42;101916.34;5010260;28;102314;-49
2022/01/16 10:22:04;;;;;;;4.78;3.28;;;;;;;9.12;66.20;101916.34;5014723;28;104253;-49
2022/01/16 10:24:34;;;;;;;4.03;2.80;;;;;;;9.11;65.88;101909.28;5010661;28;102136;-49
2022/01/16 12:36:08;;;;;;;3.63;2.80;;;;;;;9.11;66.15;101871.25;5012245;28;107958;-49
2022/01/16 12:38:52;;;;;;;3.92;2.80;;;;;;;9.11;65.89;101887.56;5003905;28;102274;-47
2022/01/16 12:41:24;;;;;;;5.38;2.65;;;;;;;9.11;66.19;101882.13;5017091;28;101970;-49
2022/01/16 12:43:53;;;;;;;3.15;2.35;;;;;;;9.12;65.43;101897.34;5012880;28;102532;-49
2022/01/16 12:46:24;;;;;;;4.32;2.65;;;;;;;9.12;66.28;101900.06;5016438;28;103928;-49
2022/01/16 12:48:52;;;;;;;2.92;2.25;;;;;;;9.12;66.25;101895.50;5012369;28;102310;-49
2022/01/16 12:51:22;;;;;;;4.33;3.00;;;;;;;9.11;66.11;101901.13;5015090;28;102538;-49
2022/01/16 12:53:52;;;;;;;5.13;2.85;;;;;;;9.11;65.41;101904.69;5007103;28;102255;-48
2022/01/16 12:56:25;;;;;;;4.30;2.80;;;;;;;9.11;65.84;101910.09;5010815;28;103862;-48
2022/01/16 12:58:53;;;;;;;4.43;3.28;;;;;;;9.12;65.41;101905.50;5005091;28;102163;-48
2022/01/16 13:01:20;;;;;;;5.60;3.65;;;;;;;9.12;65.63;101916.34;5010404;28;102337;-49
2022/01/16 13:03:47;;;;;;;4.85;3.70;;;;;;;9.11;66.15;101915.53;5003220;28;102606;-48
2022/01/16 13:06:19;;;;;;;4.70;3.50;;;;;;;9.12;66.04;101910.94;5017461;28;103819;-48
2022/01/16 13:08:59;;;;;;;3.72;3.25;;;;;;;9.12;65.46;101916.34;5017317;28;102239;-49
2022/01/16 13:11:28;;;;;;;4.28;3.75;;;;;;;9.12;65.97;101917.22;5004914;28;102052;-49
2022/01/16 13:13:54;;;;;;;4.45;3.78;;;;;;;9.11;66.14;101912.81;5006339;28;102551;-49
2022/01/16 13:16:23;;;;;;;4.32;3.05;;;;;;;9.12;65.58;101917.22;5008604;28;103851;-49
2022/01/16 13:19:08;;;;;;;5.30;3.85;;;;;;;9.12;65.51;101921.78;5018431;28;102537;-48
2022/01/16 13:21:48;;;;;;;4.03;3.30;;;;;;;9.12;65.77;101910.94;5010839;28;102161;-48
2022/01/16 13:24:29;;;;;;;5.57;3.40;;;;;;;9.13;66.34;101920.75;5018337;28;102591;-49
2022/01/16 13:26:56;;;;;;;6.32;4.10;;;;;;;9.12;66.35;101916.34;5016144;28;105654;-49
2022/01/16 13:29:25;;;;;;;4.90;3.97;;;;;;;9.12;65.84;101917.22;5001321;28;102082;-49
2022/01/16 13:31:51;;;;;;;5.75;4.28;;;;;;;9.12;65.37;101908.22;4998035;28;102150;-48
2022/01/16 13:34:36;;;;;;;5.03;3.97;;;;;;;9.12;66.18;101910.94;5009308;28;102248;-48
2022/01/16 13:37:06;;;;;;;7.50;4.80;;;;;;;9.12;66.20;101900.06;5005415;28;104048;-49
2022/01/16 13:39:39;;;;;;;6.53;3.80;;;;;;;9.11;65.73;101899.25;4999397;28;102604;-49
2022/01/16 13:42:35;;;;;;;5.15;3.85;;;;;;;9.12;65.86;101905.50;5015299;28;102553;-48
2022/01/16 13:45:16;;;;;;;5.15;4.00;;;;;;;9.12;65.56;101900.06;5002707;27;102376;-48
2022/01/16 13:47:50;;;;;;;5.85;4.25;;;;;;;9.11;65.68;101906.56;5004597;28;103976;-48
2022/01/16 13:50:17;;;;;;;6.65;4.07;;;;;;;9.12;65.84;101894.63;5004032;28;102139;-49
2022/01/16 13:52:51;;;;;;;6.43;4.22;;;;;;;9.12;65.48;101900.06;5003904;28;102321;-50
2022/01/16 13:55:20;;;;;;;6.90;4.20;;;;;;;9.11;66.47;101893.00;5017097;28;102275;-48
2022/01/16 13:57:46;;;;;;;6.17;4.30;;;;;;;9.11;66.07;101896.53;5014515;28;104098;-48
2022/01/16 14:00:14;;;;;;;5.50;3.83;;;;;;;9.11;66.15;101898.41;5009738;28;102569;-48
2022/01/16 14:02:41;;;;;;;6.10;3.95;;;;;;;9.12;65.46;101900.06;5013774;28;102478;-48
2022/01/16 14:05:08;;;;;;;5.82;4.45;;;;;;;9.12;66.19;101894.63;5001333;28;102275;-49
2022/01/16 14:07:34;;;;;;;5.30;4.07;;;;;;;9.12;65.33;101900.06;5004915;28;104084;-49
2022/01/16 14:10:01;;;;;;;5.68;4.05;;;;;;;9.12;65.96;101908.22;5005106;28;102462;-48
2022/01/16 14:12:29;;;;;;;6.05;4.15;;;;;;;9.12;65.68;101902.78;5004660;28;102493;-49
2022/01/16 14:14:55;;;;;;;4.93;3.90;;;;;;;9.12;65.65;101906.34;5015159;28;102139;-47
2022/01/16 14:22:18;;;;;;;4.95;4.15;;;;;;;9.12;65.35;101895.50;5007222;28;102305;-48
2022/01/16 14:24:48;;;;;;;6.38;4.65;;;;;;;9.13;65.57;101890.88;5017374;28;102266;-48
2022/01/16 14:27:16;;;;;;;5.88;4.68;;;;;;;9.14;66.06;101887.09;5008349;28;103935;-48